createdAt,value
2023-02-22T00:02:25.418Z,28.83
2023-02-22T00:04:58.258Z,25.23
2023-02-22T00:07:26.564Z,26.00
2023-02-22T00:09:54.975Z,32.05
2023-02-22T00:12:23.094Z,23.10
2023-02-22T00:14:54.593Z,26.05
2023-02-22T00:17:25.336Z,21.65
2023-02-22T00:19:53.719Z,29.70
2023-02-22T00:22:21.731Z,28.27
2023-02-22T00:24:53.404Z,30.15
2023-02-22T00:27:22.160Z,27.65
2023-02-22T00:29:51.536Z,41.25
2023-02-22T00:32:23.393Z,26.55
2023-02-22T00:34:56.124Z,26.27
2023-02-22T00:37:25.485Z,25.90
2023-02-22T00:39:54.011Z,31.75
2023-02-22T00:42:23.750Z,26.15
2023-02-22T00:44:54.303Z,24.23
2023-02-22T00:47:26.388Z,30.23
2023-02-22T00:49:57.800Z,34.78
2023-02-22T00:52:26.287Z,34.07
2023-02-22T00:54:55.154Z,27.58
2023-02-22T00:57:23.940Z,42.03
2023-02-22T00:59:52.728Z,27.60
2023-02-22T01:02:21.708Z,31.35
2023-02-22T01:04:50.389Z,24.05
2023-02-22T01:07:20.990Z,23.73
2023-02-22T01:09:49.241Z,30.60
2023-02-22T01:12:18.039Z,22.70
2023-02-22T01:14:46.137Z,39.30
2023-02-22T01:17:15.642Z,39.70
2023-02-22T01:19:44.071Z,33.85
2023-02-22T01:22:12.632Z,37.65
2023-02-22T01:24:42.847Z,32.47
2023-02-22T01:27:11.235Z,36.95
2023-02-22T01:29:41.359Z,39.83
2023-02-22T01:32:12.085Z,45.78
2023-02-22T01:34:40.885Z,30.80
2023-02-22T01:37:09.325Z,38.40
2023-02-22T01:39:37.705Z,40.65
2023-02-22T01:42:09.905Z,29.92
2023-02-22T01:47:08.918Z,27.88
2023-02-22T01:49:39.689Z,24.45
2023-02-22T01:52:10.885Z,33.03
2023-02-22T01:57:17.641Z,36.83
2023-02-22T01:59:48.173Z,39.15
2023-02-22T02:02:18.813Z,26.48
2023-02-22T02:04:47.463Z,39.55
2023-02-22T02:07:17.320Z,40.92
2023-02-22T02:09:50.703Z,44.80
2023-02-22T02:12:24.387Z,39.33
2023-02-22T02:14:52.778Z,38.55
2023-02-22T02:17:22.825Z,26.08
2023-02-22T02:19:58.088Z,36.47
2023-02-22T02:22:41.719Z,48.13
2023-02-22T02:25:57.020Z,32.30
2023-02-22T02:29:01.026Z,35.40
2023-02-22T02:31:54.389Z,42.47
2023-02-22T02:34:28.638Z,52.53
2023-02-22T02:37:00.931Z,31.63
2023-02-22T02:41:59.098Z,38.63
2023-02-22T02:44:30.532Z,37.55
2023-02-22T02:47:03.150Z,53.20
2023-02-22T02:49:37.247Z,30.63
2023-02-22T02:52:06.194Z,44.97
2023-02-22T02:54:37.188Z,45.40
2023-02-22T02:57:09.503Z,39.20
2023-02-22T02:59:42.689Z,37.35
2023-02-22T03:02:37.135Z,36.88
2023-02-22T03:05:32.648Z,43.55
2023-02-22T03:08:08.043Z,35.25
2023-02-22T03:10:46.168Z,46.08
2023-02-22T03:13:20.810Z,46.67
2023-02-22T03:15:54.205Z,44.67
2023-02-22T03:18:29.173Z,33.45
2023-02-22T03:21:06.738Z,35.53
2023-02-22T03:23:38.777Z,42.38
2023-02-22T03:26:12.821Z,36.92
2023-02-22T03:28:48.109Z,33.25
2023-02-22T03:31:24.242Z,34.50
2023-02-22T03:33:54.789Z,31.50
2023-02-22T03:36:26.389Z,33.15
2023-02-22T03:38:55.859Z,38.50
2023-02-22T03:41:25.730Z,37.40
2023-02-22T03:43:58.188Z,30.38
2023-02-22T03:46:29.397Z,45.65
2023-02-22T03:49:01.256Z,38.00
2023-02-22T03:51:30.747Z,28.30
2023-02-22T03:53:58.965Z,33.05
2023-02-22T03:56:38.310Z,31.35
2023-02-22T03:59:08.322Z,33.25
2023-02-22T04:01:37.488Z,25.50
2023-02-22T04:04:06.200Z,46.40
2023-02-22T04:06:35.912Z,35.78
2023-02-22T04:09:04.588Z,38.42
2023-02-22T04:11:32.688Z,39.50
2023-02-22T04:14:02.447Z,43.00
2023-02-22T04:16:30.894Z,33.33
2023-02-22T04:18:59.482Z,37.92
2023-02-22T04:21:27.927Z,37.53
2023-02-22T04:23:58.168Z,36.83
2023-02-22T04:26:26.520Z,37.80
2023-02-22T04:28:55.396Z,42.33
2023-02-22T04:31:24.008Z,36.30
2023-02-22T04:33:52.097Z,38.75
2023-02-22T04:36:21.952Z,43.40
2023-02-22T04:38:50.570Z,36.90
2023-02-22T04:41:21.262Z,40.75
2023-02-22T04:43:49.508Z,43.05
2023-02-22T04:46:20.238Z,26.17
2023-02-22T04:48:48.753Z,31.33
2023-02-22T04:51:18.557Z,44.85
2023-02-22T04:53:47.850Z,36.40
2023-02-22T04:56:24.613Z,28.58
2023-02-22T04:58:53.433Z,30.50
2023-02-22T05:01:21.624Z,37.92
2023-02-22T05:03:50.407Z,29.65
2023-02-22T05:06:20.282Z,33.10
2023-02-22T05:08:48.545Z,44.83
2023-02-22T05:11:17.694Z,35.60
2023-02-22T05:13:47.553Z,25.75
2023-02-22T05:16:16.387Z,33.13
2023-02-22T05:18:44.898Z,30.17
2023-02-22T05:21:15.402Z,35.33
2023-02-22T05:23:44.039Z,23.98
2023-02-22T05:26:12.087Z,25.67
2023-02-22T05:28:40.404Z,36.15
2023-02-22T05:31:10.004Z,45.05
2023-02-22T05:33:40.676Z,24.25
2023-02-22T05:36:09.826Z,30.38
2023-02-22T05:38:43.287Z,31.52
2023-02-22T05:41:12.568Z,36.60
2023-02-22T05:43:41.652Z,36.40
2023-02-22T05:46:14.200Z,43.78
2023-02-22T05:51:10.783Z,31.50
2023-02-22T05:53:38.833Z,35.65
2023-02-22T05:56:14.289Z,30.77
2023-02-22T05:58:43.482Z,41.72
2023-02-22T06:01:13.311Z,27.52
2023-02-22T06:03:41.860Z,34.85
2023-02-22T06:06:16.410Z,23.63
2023-02-22T06:08:45.938Z,28.80
2023-02-22T06:11:16.048Z,30.73
2023-02-22T06:13:50.480Z,39.53
2023-02-22T06:16:22.704Z,29.80
2023-02-22T06:21:20.418Z,33.45
2023-02-22T06:23:49.455Z,32.70
2023-02-22T06:26:18.530Z,27.30
2023-02-22T06:28:47.604Z,34.90
2023-02-22T06:31:16.389Z,23.95
2023-02-22T06:33:49.850Z,29.83
2023-02-22T06:36:18.605Z,34.50
2023-02-22T06:38:46.594Z,34.85
2023-02-22T06:41:17.820Z,27.48
2023-02-22T06:43:55.326Z,30.43
2023-02-22T06:46:25.562Z,35.70
2023-02-22T06:48:55.126Z,32.30
2023-02-22T06:51:28.322Z,20.55
2023-02-22T06:53:57.666Z,27.10
2023-02-22T06:56:26.077Z,30.77
2023-02-22T06:58:54.577Z,37.95
2023-02-22T07:01:23.690Z,28.58
2023-02-22T07:03:52.285Z,37.38
2023-02-22T07:06:21.877Z,30.05
2023-02-22T07:08:50.765Z,28.15
2023-02-22T07:11:19.362Z,27.65
2023-02-22T07:13:47.945Z,28.60
2023-02-22T07:16:16.337Z,29.08
2023-02-22T07:18:45.363Z,32.60
2023-02-22T07:21:13.341Z,39.85
2023-02-22T07:23:43.875Z,31.83
2023-02-22T07:26:12.217Z,27.30
2023-02-22T07:28:40.459Z,48.13
2023-02-22T07:31:10.337Z,36.70
2023-02-22T07:33:38.943Z,24.88
2023-02-22T07:36:07.833Z,32.42
2023-02-22T07:38:36.133Z,30.75
2023-02-22T07:41:06.119Z,29.88
2023-02-22T07:43:34.383Z,33.80
2023-02-22T07:46:03.208Z,31.52
2023-02-22T07:48:35.574Z,34.58
2023-02-22T07:53:33.923Z,31.30
2023-02-22T07:56:03.746Z,33.67
2023-02-22T07:58:33.859Z,32.92
2023-02-22T08:01:03.747Z,35.35
2023-02-22T08:03:34.396Z,38.47
2023-02-22T08:06:03.079Z,26.90
2023-02-22T08:08:32.597Z,31.08
2023-02-22T08:11:01.081Z,38.33
2023-02-22T08:13:31.989Z,31.95
2023-02-22T08:16:01.662Z,27.85
2023-02-22T08:18:29.850Z,24.60
2023-02-22T08:20:58.014Z,33.20
2023-02-22T08:23:27.629Z,34.15
2023-02-22T08:25:56.733Z,31.85
2023-02-22T08:28:27.640Z,36.35
2023-02-22T08:30:55.658Z,22.20
2023-02-22T08:33:27.278Z,31.98
2023-02-22T08:35:55.874Z,28.38
2023-02-22T08:38:27.311Z,29.60
2023-02-22T08:40:55.445Z,26.83
2023-02-22T08:43:24.431Z,25.92
2023-02-22T08:45:54.415Z,37.20
2023-02-22T08:48:24.874Z,37.90
2023-02-22T08:50:53.242Z,27.45
2023-02-22T08:53:21.970Z,42.05
2023-02-22T08:55:50.688Z,35.60
2023-02-22T08:58:18.944Z,30.83
2023-02-22T09:00:47.280Z,26.95
2023-02-22T09:03:17.441Z,22.10
2023-02-22T09:05:46.963Z,28.65
2023-02-22T09:08:17.553Z,30.23
2023-02-22T09:10:46.635Z,21.15
2023-02-22T09:13:17.027Z,26.55
2023-02-22T09:15:45.102Z,26.85
2023-02-22T09:18:15.080Z,20.55
2023-02-22T09:20:43.388Z,30.52
2023-02-22T09:23:14.584Z,24.98
2023-02-22T09:25:42.930Z,51.90
2023-02-22T09:28:11.046Z,34.28
2023-02-22T09:30:39.341Z,28.73
2023-02-22T09:33:10.892Z,24.67
2023-02-22T09:35:45.025Z,28.10
2023-02-22T09:38:17.440Z,27.90
2023-02-22T09:40:49.494Z,18.92
2023-02-22T09:43:28.243Z,24.58
2023-02-22T09:46:20.356Z,28.85
2023-02-22T09:48:58.208Z,30.70
2023-02-22T09:51:30.608Z,28.17
2023-02-22T09:56:31.630Z,22.50
2023-02-22T09:59:04.090Z,29.50
2023-02-22T10:01:35.892Z,25.42
2023-02-22T10:04:07.544Z,25.88
2023-02-22T10:06:36.921Z,30.48
2023-02-22T10:09:08.972Z,18.27
2023-02-22T10:11:51.648Z,17.65
2023-02-22T10:14:34.355Z,24.58
2023-02-22T10:17:07.657Z,22.20
2023-02-22T10:19:42.771Z,28.85
2023-02-22T10:22:22.538Z,23.63
2023-02-22T10:24:58.488Z,33.47
2023-02-22T10:27:31.558Z,23.20
2023-02-22T10:30:12.726Z,27.83
2023-02-22T10:32:51.304Z,22.35
2023-02-22T10:35:24.008Z,23.50
2023-02-22T10:37:55.000Z,23.10
2023-02-22T10:40:32.198Z,17.60
2023-02-22T10:43:03.798Z,21.15
2023-02-22T10:45:34.698Z,21.33
2023-02-22T10:48:08.665Z,23.85
2023-02-22T10:50:39.890Z,13.85
2023-02-22T10:53:09.008Z,31.52
2023-02-22T10:56:09.006Z,25.65
2023-02-22T10:58:49.072Z,20.88
2023-02-22T11:01:27.877Z,20.67
2023-02-22T11:04:03.177Z,24.05
2023-02-22T11:06:32.288Z,17.08
2023-02-22T11:09:11.197Z,16.25
2023-02-22T11:11:43.168Z,18.90
2023-02-22T11:14:12.192Z,17.35
2023-02-22T11:16:43.970Z,11.20
2023-02-22T11:19:20.696Z,11.73
2023-02-22T11:21:51.547Z,19.55
2023-02-22T11:24:24.245Z,21.25
2023-02-22T11:26:57.335Z,17.10
2023-02-22T11:29:28.101Z,13.93
2023-02-22T11:31:57.878Z,19.40
2023-02-22T11:34:30.171Z,14.77
2023-02-22T11:39:28.952Z,21.17
2023-02-22T11:42:01.938Z,18.27
2023-02-22T11:44:32.381Z,25.77
2023-02-22T11:47:06.985Z,19.30
2023-02-22T11:49:37.096Z,21.50
2023-02-22T11:52:13.772Z,27.67
2023-02-22T11:55:08.024Z,23.48
2023-02-22T11:57:47.795Z,15.18
2023-02-22T12:00:24.711Z,16.48
2023-02-22T12:03:07.761Z,23.67
2023-02-22T12:06:01.722Z,19.52
2023-02-22T12:08:37.357Z,20.38
2023-02-22T12:11:12.909Z,14.55
2023-02-22T12:13:54.652Z,25.90
2023-02-22T12:16:26.237Z,24.40
2023-02-22T12:19:11.319Z,28.00
2023-02-22T12:21:42.572Z,28.25
2023-02-22T12:24:14.940Z,21.27
2023-02-22T12:26:47.189Z,23.95
2023-02-22T12:31:48.526Z,21.20
2023-02-22T12:34:26.644Z,23.60
2023-02-22T12:36:57.744Z,19.98
2023-02-22T12:39:47.100Z,24.13
2023-02-22T12:42:23.834Z,19.92
2023-02-22T12:44:59.441Z,22.00
2023-02-22T12:47:37.600Z,13.63
2023-02-22T12:50:13.792Z,16.48
2023-02-22T12:52:47.039Z,18.23
2023-02-22T12:55:19.746Z,15.95
2023-02-22T12:57:51.100Z,14.15
2023-02-22T13:00:26.775Z,16.73
2023-02-22T13:03:02.392Z,18.73
2023-02-22T13:05:33.960Z,15.35
2023-02-22T13:08:12.024Z,22.20
2023-02-22T13:10:57.967Z,19.05
2023-02-22T13:13:31.593Z,23.08
2023-02-22T13:16:08.727Z,9.98
2023-02-22T13:18:41.571Z,21.95
2023-02-22T13:21:17.582Z,18.23
2023-02-22T13:23:49.178Z,18.92
2023-02-22T13:26:22.754Z,20.42
2023-02-22T13:28:57.465Z,22.35
2023-02-22T13:31:49.301Z,17.90
2023-02-22T13:34:34.252Z,18.02
2023-02-22T13:37:17.673Z,11.13
2023-02-22T13:40:07.043Z,19.17
2023-02-22T13:43:04.389Z,18.00
2023-02-22T13:45:56.683Z,18.00
2023-02-22T13:48:56.439Z,10.95
2023-02-22T13:51:38.842Z,13.95
2023-02-22T13:54:09.554Z,19.23
2023-02-22T13:56:43.625Z,18.00
2023-02-22T13:59:25.089Z,19.75
2023-02-22T14:01:55.241Z,22.50
2023-02-22T14:04:48.934Z,16.80
2023-02-22T14:07:57.392Z,18.35
2023-02-22T14:10:38.584Z,15.68
2023-02-22T14:13:07.178Z,16.55
2023-02-22T14:15:35.881Z,17.52
2023-02-22T14:18:04.773Z,11.95
2023-02-22T14:20:36.915Z,14.07
2023-02-22T14:23:35.386Z,16.83
2023-02-22T14:26:17.328Z,20.65
2023-02-22T14:28:52.598Z,17.63
2023-02-22T14:31:35.551Z,19.38
2023-02-22T14:34:10.528Z,15.75
2023-02-22T14:36:47.993Z,19.38
2023-02-22T14:39:23.847Z,23.35
2023-02-22T14:41:57.358Z,20.58
2023-02-22T14:44:30.319Z,16.38
2023-02-22T14:47:04.964Z,17.60
2023-02-22T14:49:36.116Z,15.38
2023-02-22T14:52:12.787Z,14.13
2023-02-22T14:54:50.956Z,21.52
2023-02-22T14:57:24.748Z,17.13
2023-02-22T15:00:02.557Z,21.15
2023-02-22T15:02:41.450Z,20.02
2023-02-22T15:05:14.444Z,22.02
2023-02-22T15:07:52.026Z,16.27
2023-02-22T15:10:25.208Z,28.17
2023-02-22T15:13:09.760Z,11.63
2023-02-22T15:15:43.882Z,21.92
2023-02-22T15:18:32.968Z,19.75
2023-02-22T15:21:07.084Z,12.05
2023-02-22T15:23:44.330Z,17.55
2023-02-22T15:26:21.172Z,21.35
2023-02-22T15:28:50.157Z,14.23
2023-02-22T15:31:23.184Z,18.85
2023-02-22T15:33:55.180Z,23.25
2023-02-22T15:36:28.749Z,20.02
2023-02-22T15:38:58.291Z,20.77
2023-02-22T15:41:31.827Z,13.95
2023-02-22T15:44:08.077Z,21.77
2023-02-22T15:46:42.906Z,14.40
2023-02-22T15:49:23.329Z,18.08
2023-02-22T15:52:04.101Z,16.23
2023-02-22T15:54:42.817Z,15.07
2023-02-22T15:57:11.355Z,17.77
2023-02-22T15:59:49.516Z,27.00
2023-02-22T16:02:31.630Z,21.33
2023-02-22T16:05:03.933Z,18.02
2023-02-22T16:07:32.264Z,22.55
2023-02-22T16:10:09.503Z,21.85
2023-02-22T16:12:38.474Z,22.52
2023-02-22T16:15:16.500Z,21.98
2023-02-22T16:17:59.791Z,17.02
2023-02-22T16:20:35.537Z,23.13
2023-02-22T16:23:25.161Z,16.67
2023-02-22T16:26:06.217Z,22.38
2023-02-22T16:28:35.994Z,22.48
2023-02-22T16:31:05.584Z,17.38
2023-02-22T16:33:36.140Z,16.40
2023-02-22T16:36:08.394Z,14.07
2023-02-22T16:38:38.624Z,18.63
2023-02-22T16:41:08.714Z,23.88
2023-02-22T16:43:41.056Z,17.85
2023-02-22T16:48:38.804Z,15.27
2023-02-22T16:51:15.230Z,14.43
2023-02-22T16:53:45.074Z,19.95
2023-02-22T16:56:16.684Z,15.63
2023-02-22T16:58:45.311Z,26.25
2023-02-22T17:01:14.902Z,26.08
2023-02-22T17:03:43.260Z,22.05
2023-02-22T17:06:13.214Z,17.35
2023-02-22T17:08:43.454Z,18.83
2023-02-22T17:11:14.590Z,20.17
2023-02-22T17:13:46.935Z,22.30
2023-02-22T17:18:46.071Z,22.35
2023-02-22T17:21:16.719Z,22.83
2023-02-22T17:23:47.249Z,20.88
2023-02-22T17:26:18.937Z,25.08
2023-02-22T17:28:48.478Z,18.25
2023-02-22T17:31:23.634Z,18.83
2023-02-22T17:33:52.372Z,13.80
2023-02-22T17:36:21.053Z,17.10
2023-02-22T17:38:50.086Z,19.45
2023-02-22T17:41:19.559Z,25.42
2023-02-22T17:43:49.509Z,16.95
2023-02-22T17:46:19.970Z,11.82
2023-02-22T17:48:49.901Z,25.73
2023-02-22T17:51:18.840Z,14.00
2023-02-22T17:53:47.593Z,17.08
2023-02-22T17:56:23.271Z,27.65
2023-02-22T17:58:55.694Z,16.80
2023-02-22T18:01:27.531Z,15.88
2023-02-22T18:03:59.173Z,20.00
2023-02-22T18:06:30.251Z,24.33
2023-02-22T18:09:00.368Z,25.20
2023-02-22T18:11:32.795Z,24.77
2023-02-22T18:14:02.759Z,17.58
2023-02-22T18:16:31.990Z,18.17
2023-02-22T18:19:01.846Z,21.00
2023-02-22T18:21:30.444Z,14.52
2023-02-22T18:23:59.165Z,13.15
2023-02-22T18:26:28.086Z,17.52
2023-02-22T18:28:56.583Z,25.90
2023-02-22T18:31:26.556Z,17.13
2023-02-22T18:33:55.452Z,22.98
2023-02-22T18:36:24.453Z,23.13
2023-02-22T18:38:54.730Z,29.25
2023-02-22T18:41:25.955Z,17.33
2023-02-22T18:43:55.749Z,14.23
2023-02-22T18:46:26.718Z,32.53
2023-02-22T18:48:57.604Z,18.70
2023-02-22T18:51:28.371Z,28.50
2023-02-22T18:54:00.544Z,17.48
2023-02-22T18:56:31.325Z,21.27
2023-02-22T18:59:02.170Z,17.40
2023-02-22T19:01:38.637Z,19.55
2023-02-22T19:04:09.994Z,21.38
2023-02-22T19:06:38.336Z,28.10
2023-02-22T19:09:09.095Z,18.58
2023-02-22T19:11:40.534Z,17.63
2023-02-22T19:14:09.879Z,21.53
2023-02-22T19:16:45.188Z,19.95
2023-02-22T19:19:15.139Z,24.50
2023-02-22T19:21:44.932Z,14.57
2023-02-22T19:24:14.456Z,13.90
2023-02-22T19:26:50.517Z,17.85
2023-02-22T19:29:19.263Z,13.30
2023-02-22T19:31:51.359Z,30.90
2023-02-22T19:34:24.818Z,14.25
2023-02-22T19:36:53.633Z,19.38
2023-02-22T19:39:26.136Z,11.90
2023-02-22T19:41:54.319Z,17.13
2023-02-22T19:44:22.510Z,18.38
2023-02-22T19:46:55.366Z,13.40
2023-02-22T19:51:53.244Z,10.63
2023-02-22T19:54:24.887Z,11.43
2023-02-22T19:56:53.284Z,18.27
2023-02-22T19:59:26.096Z,14.20
2023-02-22T20:01:57.059Z,11.45
2023-02-22T20:04:26.048Z,15.13
2023-02-22T20:06:56.161Z,13.27
2023-02-22T20:09:29.823Z,13.02
2023-02-22T20:12:08.512Z,11.57
2023-02-22T20:14:37.661Z,15.98
2023-02-22T20:17:13.059Z,16.45
2023-02-22T20:19:43.316Z,17.42
2023-02-22T20:22:12.463Z,11.32
2023-02-22T20:24:41.011Z,13.50
2023-02-22T20:27:13.188Z,13.15
2023-02-22T20:29:42.480Z,9.63
2023-02-22T20:32:15.641Z,12.45
2023-02-22T20:34:48.566Z,11.70
2023-02-22T20:37:19.669Z,12.43
2023-02-22T20:39:49.270Z,10.43
2023-02-22T20:42:17.789Z,7.88
2023-02-22T20:44:49.314Z,11.32
2023-02-22T20:47:22.392Z,13.48
2023-02-22T20:49:54.314Z,14.00
2023-02-22T20:52:24.368Z,6.43
2023-02-22T20:54:54.024Z,15.07
2023-02-22T20:57:24.297Z,11.90
2023-02-22T20:59:52.279Z,23.02
2023-02-22T21:02:24.996Z,20.80
2023-02-22T21:04:53.692Z,14.48
2023-02-22T21:07:22.774Z,7.35
2023-02-22T21:09:53.545Z,13.05
2023-02-22T21:12:22.593Z,13.93
2023-02-22T21:14:52.412Z,13.25
2023-02-22T21:17:28.741Z,21.15
2023-02-22T21:20:04.896Z,13.10
2023-02-22T21:22:35.958Z,17.50
2023-02-22T21:25:04.774Z,18.30
2023-02-22T21:27:32.885Z,13.82
2023-02-22T21:30:01.468Z,9.70
2023-02-22T21:32:30.812Z,11.05
2023-02-22T21:35:01.336Z,11.07
2023-02-22T21:37:32.008Z,9.70
2023-02-22T21:40:02.505Z,8.40
2023-02-22T21:42:31.221Z,12.75
2023-02-22T21:44:59.799Z,10.70
2023-02-22T21:47:31.124Z,18.15
2023-02-22T21:50:05.465Z,16.35
2023-02-22T21:52:33.770Z,20.88
2023-02-22T21:55:02.095Z,15.80
2023-02-22T21:57:31.904Z,21.15
2023-02-22T22:00:00.188Z,18.58
2023-02-22T22:02:30.504Z,10.70
2023-02-22T22:05:00.120Z,15.35
2023-02-22T22:07:29.719Z,12.38
2023-02-22T22:10:01.137Z,22.20
2023-02-22T22:12:39.260Z,18.03
2023-02-22T22:15:08.785Z,19.27
2023-02-22T22:17:37.517Z,21.45
2023-02-22T22:20:11.708Z,16.75
2023-02-22T22:22:42.734Z,26.83
2023-02-22T22:25:12.818Z,26.13
2023-02-22T22:27:41.629Z,20.30
2023-02-22T22:30:13.265Z,28.52
2023-02-22T22:32:41.691Z,23.40
2023-02-22T22:35:14.955Z,22.25
2023-02-22T22:37:44.802Z,20.23
2023-02-22T22:40:15.698Z,28.48
2023-02-22T22:42:45.262Z,34.50
2023-02-22T22:45:17.215Z,18.58
2023-02-22T22:47:47.440Z,31.10
2023-02-22T22:50:19.791Z,20.33
2023-02-22T22:55:19.017Z,20.02
2023-02-22T22:57:47.597Z,33.15
2023-02-22T23:00:30.297Z,21.70
2023-02-22T23:02:59.788Z,25.52
2023-02-22T23:05:30.409Z,31.35
2023-02-22T23:08:04.727Z,29.48
2023-02-22T23:10:33.353Z,25.23
2023-02-22T23:13:02.517Z,22.20
2023-02-22T23:15:33.648Z,27.23
2023-02-22T23:18:08.265Z,24.65
2023-02-22T23:20:39.014Z,23.30
2023-02-22T23:23:08.260Z,29.42
2023-02-22T23:25:38.987Z,23.95
2023-02-22T23:28:14.754Z,28.05
2023-02-22T23:30:43.036Z,23.75
2023-02-22T23:33:11.234Z,31.65
2023-02-22T23:35:46.997Z,29.60
2023-02-22T23:38:17.362Z,24.45
2023-02-22T23:40:49.319Z,28.30
2023-02-22T23:43:17.793Z,33.45
2023-02-22T23:45:48.320Z,28.20
2023-02-22T23:48:20.673Z,33.53
2023-02-22T23:51:11.906Z,28.35
2023-02-22T23:53:46.128Z,36.58
2023-02-22T23:56:15.920Z,37.97
2023-02-22T23:58:47.178Z,34.50
